Terminal Aerodrome Forecast
Issued by NWS

Current Version | Previous Version | Text Only | Print | Product List | Glossary On
Versions: 1 2 3 4 5 6 7 8 9 10 11 12 13 14 15 16 17 18 19 20 21 22 23 24 25 26 27 28 29 30 31 32
000
FTUS45 KGGW 232320
TAFOLF
TAF
KOLF 232320Z 2400/2424 00000KT 3SM -SN OVC035
     FM240200 35004KT P6SM VCSH OVC025
     FM241000 29005KT P6SM BKN015
     FM241900 29009KT P6SM BKN015=

USA.gov is the U.S. government's official web portal to all federal, state and local government web resources and services.